createdAt,value
2022-08-01T00:00:50.400Z,72.29
2022-08-01T00:03:18.126Z,72.66
2022-08-01T00:05:46.338Z,72.96
2022-08-01T00:08:14.035Z,73.17
2022-08-01T00:10:41.806Z,73.22
2022-08-01T00:13:10.868Z,73.74
2022-08-01T00:15:38.579Z,73.69
2022-08-01T00:18:06.335Z,74.20
2022-08-01T00:20:34.030Z,74.50
2022-08-01T00:23:04.267Z,74.48
2022-08-01T00:25:33.897Z,74.84
2022-08-01T00:28:02.168Z,75.09
2022-08-01T00:30:33.179Z,75.11
2022-08-01T00:33:00.889Z,75.17
2022-08-01T00:35:28.617Z,75.27
2022-08-01T00:37:56.579Z,75.11
2022-08-01T00:40:24.339Z,75.72
2022-08-01T00:42:52.090Z,75.07
2022-08-01T00:45:19.803Z,75.60
2022-08-01T00:47:48.941Z,76.28
2022-08-01T00:50:22.954Z,76.27
2022-08-01T00:52:52.919Z,76.46
2022-08-01T00:55:21.384Z,76.54
2022-08-01T00:58:02.784Z,76.79
2022-08-01T01:00:34.827Z,76.67
2022-08-01T01:03:11.442Z,77.11
2022-08-01T01:05:45.128Z,77.07
2022-08-01T01:08:16.388Z,77.52
2022-08-01T01:10:53.121Z,78.03
2022-08-01T01:13:25.590Z,78.06
2022-08-01T01:15:57.410Z,78.38
2022-08-01T01:18:29.501Z,78.46
2022-08-01T01:21:02.522Z,78.52
2022-08-01T01:23:42.385Z,78.96
2022-08-01T01:26:25.820Z,79.33
2022-08-01T01:29:01.957Z,79.33
2022-08-01T01:31:29.854Z,79.19
2022-08-01T01:33:59.037Z,79.39
2022-08-01T01:36:27.605Z,79.72
2022-08-01T01:38:56.294Z,79.49
2022-08-01T01:41:24.403Z,79.74
2022-08-01T01:43:52.586Z,80.13
2022-08-01T01:46:27.843Z,79.81
2022-08-01T01:48:56.448Z,79.88
2022-08-01T01:51:25.217Z,80.15
2022-08-01T01:53:54.894Z,80.45
2022-08-01T01:56:23.045Z,80.59
2022-08-01T01:58:52.700Z,79.95
2022-08-01T02:01:58.910Z,80.79
2022-08-01T02:04:10.206Z,80.67
2022-08-01T02:06:39.630Z,80.87
2022-08-01T02:09:07.601Z,81.02
2022-08-01T02:11:37.398Z,81.17
2022-08-01T02:14:25.734Z,81.78
2022-08-01T02:16:57.021Z,81.32
2022-08-01T02:19:24.681Z,81.70
2022-08-01T02:21:54.783Z,81.69
2022-08-01T02:24:30.282Z,82.24
2022-08-01T02:27:00.943Z,81.87
2022-08-01T02:29:35.484Z,82.08
2022-08-01T02:32:06.483Z,82.66
2022-08-01T02:34:35.254Z,82.83
2022-08-01T02:37:03.451Z,82.66
2022-08-01T02:39:32.516Z,82.86
2022-08-01T02:42:02.798Z,83.24
2022-08-01T02:44:33.577Z,83.42
2022-08-01T02:47:05.652Z,83.88
2022-08-01T02:49:35.264Z,84.08
2022-08-01T02:52:04.115Z,83.86
2022-08-01T02:54:32.715Z,83.98
2022-08-01T02:57:01.308Z,83.96
2022-08-01T02:59:30.796Z,84.11
2022-08-01T03:02:00.062Z,84.41
2022-08-01T03:04:30.253Z,84.55
2022-08-01T03:06:59.422Z,84.37
2022-08-01T03:09:27.811Z,84.56
2022-08-01T03:11:59.677Z,84.78
2022-08-01T03:14:28.007Z,84.63
2022-08-01T03:16:57.043Z,85.04
2022-08-01T03:19:26.612Z,85.49
2022-08-01T03:21:56.744Z,85.35
2022-08-01T03:24:25.795Z,85.91
2022-08-01T03:26:54.588Z,85.96
2022-08-01T03:29:26.644Z,86.36
2022-08-01T03:31:54.764Z,86.50
2022-08-01T03:34:22.600Z,86.38
2022-08-01T03:36:52.030Z,86.74
2022-08-01T03:39:23.083Z,87.08
2022-08-01T03:41:56.812Z,87.59
2022-08-01T03:44:27.021Z,87.90
2022-08-01T03:46:59.005Z,87.86
2022-08-01T03:49:31.607Z,88.29
2022-08-01T03:52:01.250Z,88.18
2022-08-01T03:54:33.584Z,87.76
2022-08-01T03:57:02.286Z,88.42
2022-08-01T03:59:30.915Z,88.94
2022-08-01T04:01:58.652Z,88.26
2022-08-01T04:04:26.585Z,88.80
2022-08-01T04:06:55.484Z,89.16
2022-08-01T04:09:23.603Z,89.63
2022-08-01T04:11:52.646Z,89.45
2022-08-01T04:14:20.429Z,89.47
2022-08-01T04:16:48.155Z,89.85
2022-08-01T04:19:16.353Z,89.90
2022-08-01T04:21:43.980Z,89.69
2022-08-01T04:24:15.260Z,89.52
2022-08-01T04:26:45.864Z,89.47
2022-08-01T04:29:16.225Z,89.30
2022-08-01T04:31:46.371Z,89.59
2022-08-01T04:34:15.158Z,89.79
2022-08-01T04:36:43.869Z,89.81
2022-08-01T04:39:11.811Z,89.52
2022-08-01T04:41:40.435Z,89.50
2022-08-01T04:44:11.315Z,89.16
2022-08-01T04:46:41.004Z,89.04
2022-08-01T04:49:09.840Z,88.70
2022-08-01T04:51:37.870Z,88.61
2022-08-01T04:54:08.326Z,88.23
2022-08-01T04:56:36.404Z,87.72
2022-08-01T04:59:21.634Z,87.82
2022-08-01T05:01:53.823Z,87.02
2022-08-01T05:04:21.550Z,87.05
2022-08-01T05:06:49.227Z,87.08
2022-08-01T05:09:16.975Z,86.56
2022-08-01T05:11:44.753Z,86.71
2022-08-01T05:14:12.396Z,86.92
2022-08-01T05:16:40.103Z,87.04
2022-08-01T05:19:09.743Z,87.00
2022-08-01T05:21:38.286Z,87.32
2022-08-01T05:24:06.564Z,86.84
2022-08-01T05:26:34.270Z,86.75
2022-08-01T05:29:04.594Z,86.80
2022-08-01T05:31:35.110Z,86.64
2022-08-01T05:34:02.936Z,85.94
2022-08-01T05:36:32.032Z,86.48
2022-08-01T05:38:59.671Z,86.51
2022-08-01T05:41:27.436Z,87.22
2022-08-01T05:43:55.096Z,86.85
2022-08-01T05:46:22.780Z,86.83
2022-08-01T05:48:54.130Z,86.29
2022-08-01T05:51:21.864Z,85.83
2022-08-01T05:53:51.046Z,85.27
2022-08-01T05:56:18.723Z,85.05
2022-08-01T05:58:46.507Z,84.65
2022-08-01T06:01:14.186Z,84.17
2022-08-01T06:03:45.336Z,83.36
2022-08-01T06:06:13.083Z,82.54
2022-08-01T06:08:40.891Z,81.60
2022-08-01T06:11:10.026Z,80.80
2022-08-01T06:13:48.236Z,80.92
2022-08-01T06:16:17.150Z,80.91
2022-08-01T06:18:45.179Z,80.23
2022-08-01T06:21:12.843Z,80.21
2022-08-01T06:23:43.320Z,79.63
2022-08-01T06:26:13.027Z,80.32
2022-08-01T06:28:40.752Z,80.01
2022-08-01T06:31:08.660Z,80.07
2022-08-01T06:33:36.409Z,80.03
2022-08-01T06:36:04.425Z,79.23
2022-08-01T06:38:32.234Z,78.96
2022-08-01T06:41:00.114Z,79.18
2022-08-01T06:43:29.192Z,78.43
2022-08-01T06:45:57.089Z,77.66
2022-08-01T06:48:24.884Z,78.21
2022-08-01T06:51:08.777Z,77.60
2022-08-01T06:53:37.389Z,78.19
2022-08-01T06:56:05.997Z,77.64
2022-08-01T06:58:35.810Z,76.92
2022-08-01T07:01:06.902Z,76.85
2022-08-01T07:03:53.255Z,76.09
2022-08-01T07:06:22.063Z,75.63
2022-08-01T07:08:49.803Z,75.47
2022-08-01T07:11:17.854Z,75.73
2022-08-01T07:13:47.487Z,75.84
2022-08-01T07:16:15.375Z,76.21
2022-08-01T07:18:43.431Z,76.16
2022-08-01T07:21:18.548Z,75.87
2022-08-01T07:23:59.209Z,76.24
2022-08-01T07:26:28.602Z,75.03
2022-08-01T07:28:57.754Z,76.16
2022-08-01T07:31:28.347Z,76.73
2022-08-01T07:33:58.508Z,75.84
2022-08-01T07:36:26.276Z,74.97
2022-08-01T07:38:54.166Z,73.49
2022-08-01T07:41:22.100Z,73.94
2022-08-01T07:44:11.262Z,74.80
2022-08-01T07:46:39.018Z,75.05
2022-08-01T07:49:06.884Z,74.62
2022-08-01T07:51:37.532Z,74.31
2022-08-01T07:54:05.514Z,73.72
2022-08-01T07:56:33.948Z,73.80
2022-08-01T07:59:01.793Z,73.82
2022-08-01T08:01:31.190Z,73.29
2022-08-01T08:03:58.820Z,74.00
2022-08-01T08:06:27.119Z,73.87
2022-08-01T08:08:55.163Z,73.51
2022-08-01T08:11:22.912Z,73.32
2022-08-01T08:13:50.622Z,73.38
2022-08-01T08:16:18.627Z,73.81
2022-08-01T08:18:50.618Z,73.63
2022-08-01T08:21:18.325Z,72.74
2022-08-01T08:24:03.861Z,72.68
2022-08-01T08:26:31.886Z,72.94
2022-08-01T08:28:59.720Z,73.14
2022-08-01T08:31:51.889Z,72.09
2022-08-01T08:34:16.862Z,72.94
2022-08-01T08:36:47.938Z,72.18
2022-08-01T08:39:16.384Z,71.54
2022-08-01T08:41:49.730Z,71.49
2022-08-01T08:44:18.301Z,71.74
2022-08-01T08:46:47.831Z,71.11
2022-08-01T08:49:19.422Z,69.98
2022-08-01T08:51:49.905Z,69.03
2022-08-01T08:54:19.049Z,68.32
2022-08-01T08:56:48.375Z,66.95
2022-08-01T08:59:16.481Z,67.10
2022-08-01T09:01:44.653Z,66.11
2022-08-01T09:04:13.405Z,65.20
2022-08-01T09:06:42.679Z,63.96
2022-08-01T09:09:10.734Z,64.63
2022-08-01T09:11:39.142Z,65.50
2022-08-01T09:14:10.162Z,64.64
2022-08-01T09:16:47.955Z,65.21
2022-08-01T09:19:39.794Z,65.23
2022-08-01T09:22:09.475Z,66.02
2022-08-01T09:24:37.798Z,65.40
2022-08-01T09:27:19.713Z,66.04
2022-08-01T09:29:49.955Z,64.87
2022-08-01T09:32:34.311Z,64.74
2022-08-01T09:35:24.519Z,65.39
2022-08-01T09:40:55.944Z,64.82
2022-08-01T09:43:27.563Z,63.01
2022-08-01T09:45:55.836Z,62.78
2022-08-01T09:48:28.685Z,63.34
2022-08-01T09:51:04.473Z,63.34
2022-08-01T09:53:51.443Z,62.89
2022-08-01T09:56:23.093Z,62.68
2022-08-01T09:59:00.613Z,62.12
2022-08-01T10:01:36.760Z,62.49
2022-08-01T10:04:11.854Z,62.61
2022-08-01T10:06:41.517Z,62.62
2022-08-01T10:09:09.578Z,61.52
2022-08-01T10:11:40.043Z,61.98
2022-08-01T10:14:08.595Z,61.73
2022-08-01T10:16:37.223Z,61.14
2022-08-01T10:19:14.680Z,61.00
2022-08-01T10:21:56.113Z,60.23
2022-08-01T10:24:29.935Z,60.71
2022-08-01T10:27:05.862Z,60.34
2022-08-01T10:29:46.097Z,58.88
2022-08-01T10:32:15.354Z,59.06
2022-08-01T10:34:44.977Z,58.96
2022-08-01T10:37:14.985Z,58.85
2022-08-01T10:39:43.494Z,59.04
2022-08-01T10:42:15.719Z,58.17
2022-08-01T10:44:47.175Z,58.18
2022-08-01T10:47:23.630Z,58.80
2022-08-01T10:49:59.971Z,57.90
2022-08-01T10:52:27.995Z,57.51
2022-08-01T10:55:04.504Z,58.00
2022-08-01T10:57:48.863Z,56.86
2022-08-01T11:00:21.497Z,56.56
2022-08-01T11:03:01.489Z,56.63
2022-08-01T11:05:30.607Z,57.27
2022-08-01T11:08:03.475Z,57.17
2022-08-01T11:10:37.384Z,58.56
2022-08-01T11:13:09.622Z,59.49
2022-08-01T11:15:37.686Z,58.25
2022-08-01T11:18:33.844Z,56.18
2022-08-01T11:21:58.251Z,57.79
2022-08-01T11:23:54.422Z,57.40
2022-08-01T11:26:29.373Z,57.14
2022-08-01T11:29:23.509Z,56.82
2022-08-01T11:31:52.835Z,55.04
2022-08-01T11:34:20.924Z,53.45
2022-08-01T11:36:59.066Z,53.88
2022-08-01T11:39:27.282Z,53.26
2022-08-01T11:41:55.784Z,52.91
2022-08-01T11:44:28.213Z,52.56
2022-08-01T11:47:08.713Z,51.41
2022-08-01T11:49:49.803Z,50.84
2022-08-01T11:52:20.695Z,50.94
2022-08-01T11:54:50.351Z,51.59
2022-08-01T11:57:23.131Z,52.05
2022-08-01T12:00:03.293Z,52.13
2022-08-01T12:02:34.859Z,51.20
2022-08-01T12:05:04.943Z,51.50
2022-08-01T12:07:35.567Z,51.25
2022-08-01T12:10:05.550Z,51.36
2022-08-01T12:12:34.148Z,51.78
2022-08-01T12:15:05.325Z,51.32
2022-08-01T12:17:35.654Z,51.79
2022-08-01T12:20:04.814Z,51.93
2022-08-01T12:22:32.739Z,51.39
2022-08-01T12:25:07.448Z,50.98
2022-08-01T12:27:36.229Z,50.58
2022-08-01T12:30:07.452Z,49.59
2022-08-01T12:32:37.513Z,50.69
2022-08-01T12:35:07.058Z,50.51
2022-08-01T12:37:37.387Z,50.36
2022-08-01T12:40:12.181Z,49.86
2022-08-01T12:42:40.659Z,50.88
2022-08-01T12:45:11.782Z,50.72
2022-08-01T12:47:40.527Z,51.19
2022-08-01T12:50:09.736Z,52.04
2022-08-01T12:52:37.515Z,51.48
2022-08-01T12:55:14.086Z,50.17
2022-08-01T12:57:45.513Z,49.84
2022-08-01T13:00:20.369Z,49.26
2022-08-01T13:02:49.057Z,49.28
2022-08-01T13:05:17.781Z,49.84
2022-08-01T13:07:48.476Z,49.61
2022-08-01T13:10:17.368Z,50.80
2022-08-01T13:12:54.389Z,50.37
2022-08-01T13:15:29.127Z,49.29
2022-08-01T13:17:57.045Z,50.60
2022-08-01T13:20:33.864Z,50.26
2022-08-01T13:23:15.706Z,50.22
2022-08-01T13:25:51.024Z,50.99
2022-08-01T13:28:23.876Z,51.31
2022-08-01T13:30:58.152Z,51.29
2022-08-01T13:33:26.948Z,50.74
2022-08-01T13:35:58.680Z,50.97
2022-08-01T13:38:40.276Z,51.23
2022-08-01T13:41:07.964Z,51.71
2022-08-01T13:43:58.149Z,51.58
2022-08-01T13:46:24.931Z,51.90
2022-08-01T13:48:53.323Z,51.77
2022-08-01T13:51:22.598Z,52.06
2022-08-01T13:53:50.354Z,52.37
2022-08-01T13:56:18.313Z,52.33
2022-08-01T13:58:46.777Z,52.91
2022-08-01T14:01:15.084Z,53.75
2022-08-01T14:03:44.137Z,54.49
2022-08-01T14:06:12.196Z,54.05
2022-08-01T14:08:39.901Z,53.81
2022-08-01T14:11:13.762Z,54.20
2022-08-01T14:13:46.710Z,53.90
2022-08-01T14:16:14.699Z,54.75
2022-08-01T14:18:44.485Z,55.17
2022-08-01T14:21:12.227Z,54.94
2022-08-01T14:23:40.169Z,55.20
2022-08-01T14:26:12.082Z,55.93
2022-08-01T14:28:40.804Z,54.93
2022-08-01T14:31:08.807Z,55.28
2022-08-01T14:33:36.780Z,55.78
2022-08-01T14:36:30.313Z,54.80
2022-08-01T14:38:54.469Z,55.27
2022-08-01T14:41:28.615Z,55.55
2022-08-01T14:43:58.428Z,55.81
2022-08-01T14:46:26.244Z,55.80
2022-08-01T14:48:53.978Z,56.05
2022-08-01T14:51:23.012Z,56.20
2022-08-01T14:53:53.297Z,56.86
2022-08-01T14:56:21.101Z,57.98
2022-08-01T14:58:48.781Z,58.15
2022-08-01T15:01:17.319Z,57.89
2022-08-01T15:03:45.122Z,56.84
2022-08-01T15:06:13.521Z,57.31
2022-08-01T15:08:42.732Z,56.92
2022-08-01T15:11:10.644Z,56.58
2022-08-01T15:13:42.352Z,56.62
2022-08-01T15:16:11.991Z,56.63
2022-08-01T15:18:40.210Z,57.11
2022-08-01T15:21:07.910Z,57.18
2022-08-01T15:23:35.568Z,56.77
2022-08-01T15:26:04.790Z,56.65
2022-08-01T15:28:32.629Z,56.76
2022-08-01T15:31:00.444Z,56.94
2022-08-01T15:33:28.253Z,56.35
2022-08-01T15:35:56.187Z,56.30
2022-08-01T15:38:25.219Z,57.27
2022-08-01T15:40:53.047Z,60.87
2022-08-01T15:43:22.199Z,61.44
2022-08-01T15:45:50.619Z,61.25
2022-08-01T15:48:18.897Z,61.76
2022-08-01T15:50:48.251Z,61.85
2022-08-01T15:53:16.177Z,62.76
2022-08-01T15:55:48.934Z,61.57
2022-08-01T15:58:20.369Z,62.01
2022-08-01T16:00:49.497Z,62.38
2022-08-01T16:03:17.270Z,62.52
2022-08-01T16:05:45.271Z,62.35
2022-08-01T16:08:13.314Z,62.43
2022-08-01T16:10:41.401Z,62.47
2022-08-01T16:13:09.368Z,62.85
2022-08-01T16:15:38.253Z,62.72
2022-08-01T16:18:08.404Z,62.95
2022-08-01T16:20:40.190Z,63.45
2022-08-01T16:23:12.441Z,63.39
2022-08-01T16:25:40.297Z,63.64
2022-08-01T16:28:09.773Z,63.50
2022-08-01T16:30:37.597Z,63.89
2022-08-01T16:33:38.923Z,64.50
2022-08-01T16:35:58.655Z,64.01
2022-08-01T16:38:27.169Z,62.46
2022-08-01T16:40:55.533Z,61.30
2022-08-01T16:43:23.959Z,60.31
2022-08-01T16:45:51.802Z,59.55
2022-08-01T16:48:20.897Z,59.28
2022-08-01T16:50:50.245Z,59.26
2022-08-01T16:53:18.876Z,59.08
2022-08-01T16:55:49.696Z,59.27
2022-08-01T16:58:27.320Z,59.25
2022-08-01T17:00:57.029Z,59.34
2022-08-01T17:03:46.981Z,59.81
2022-08-01T17:06:14.947Z,59.66
2022-08-01T17:08:47.134Z,59.89
2022-08-01T17:11:15.462Z,60.27
2022-08-01T17:13:43.185Z,60.31
2022-08-01T17:16:11.416Z,60.48
2022-08-01T17:18:40.452Z,60.48
2022-08-01T17:21:08.106Z,60.96
2022-08-01T17:23:36.016Z,61.28
2022-08-01T17:26:03.767Z,61.27
2022-08-01T17:28:31.472Z,60.87
2022-08-01T17:30:59.271Z,61.58
2022-08-01T17:33:45.116Z,61.57
2022-08-01T17:36:17.626Z,61.11
2022-08-01T17:38:45.427Z,60.76
2022-08-01T17:41:13.105Z,61.10
2022-08-01T17:43:40.826Z,61.40
2022-08-01T17:46:08.511Z,61.93
2022-08-01T17:48:36.245Z,61.86
2022-08-01T17:51:03.911Z,61.60
2022-08-01T17:53:33.535Z,61.08
2022-08-01T17:56:02.472Z,60.98
2022-08-01T17:58:49.892Z,60.13
2022-08-01T18:01:19.561Z,60.07
2022-08-01T18:03:47.696Z,59.68
2022-08-01T18:06:17.349Z,59.77
2022-08-01T18:08:47.777Z,60.16
2022-08-01T18:11:16.596Z,59.90
2022-08-01T18:13:44.661Z,59.46
2022-08-01T18:16:12.981Z,59.56
2022-08-01T18:18:41.613Z,59.60
2022-08-01T18:21:09.649Z,59.41
2022-08-01T18:23:37.333Z,59.92
2022-08-01T18:26:08.382Z,60.24
2022-08-01T18:28:41.806Z,59.87
2022-08-01T18:31:16.486Z,60.33
2022-08-01T18:33:44.253Z,60.76
2022-08-01T18:36:29.960Z,60.98
2022-08-01T18:39:00.350Z,61.76
2022-08-01T18:41:30.845Z,61.53
2022-08-01T18:44:03.918Z,62.39
2022-08-01T18:46:35.394Z,62.29
2022-08-01T18:49:03.120Z,62.30
2022-08-01T18:51:30.775Z,62.47
2022-08-01T18:53:58.669Z,62.80
2022-08-01T18:56:26.652Z,62.81
2022-08-01T18:58:55.783Z,63.40
2022-08-01T19:01:23.685Z,63.13
2022-08-01T19:03:51.439Z,63.31
2022-08-01T19:06:19.108Z,63.61
2022-08-01T19:08:47.045Z,64.09
2022-08-01T19:11:14.834Z,64.00
2022-08-01T19:13:42.620Z,64.56
2022-08-01T19:16:11.731Z,64.39
2022-08-01T19:18:40.105Z,64.44
2022-08-01T19:21:07.920Z,65.16
2022-08-01T19:23:53.498Z,64.82
2022-08-01T19:26:23.579Z,65.52
2022-08-01T19:28:53.482Z,65.73
2022-08-01T19:31:26.674Z,66.21
2022-08-01T19:33:55.141Z,66.28
2022-08-01T19:36:22.988Z,66.81
2022-08-01T19:38:51.116Z,67.25
2022-08-01T19:41:19.647Z,67.14
2022-08-01T19:43:47.955Z,67.22
2022-08-01T19:46:17.643Z,67.56
2022-08-01T19:48:53.695Z,67.49
2022-08-01T19:51:33.180Z,67.52
2022-08-01T19:54:05.775Z,67.76
2022-08-01T19:56:39.627Z,67.90
2022-08-01T19:59:08.943Z,68.27
2022-08-01T20:01:37.492Z,68.22
2022-08-01T20:04:07.083Z,68.23
2022-08-01T20:06:35.338Z,68.64
2022-08-01T20:09:03.646Z,69.14
2022-08-01T20:11:31.567Z,69.37
2022-08-01T20:14:00.441Z,68.96
2022-08-01T20:16:29.330Z,69.16
2022-08-01T20:18:57.400Z,69.21
2022-08-01T20:21:27.773Z,68.89
2022-08-01T20:24:02.445Z,68.76
2022-08-01T20:26:31.653Z,69.07
2022-08-01T20:29:00.259Z,68.74
2022-08-01T20:31:34.670Z,69.02
2022-08-01T20:34:15.891Z,69.68
2022-08-01T20:36:54.746Z,69.03
2022-08-01T20:39:24.767Z,68.48
2022-08-01T20:41:59.676Z,69.01
2022-08-01T20:44:31.392Z,68.65
2022-08-01T20:47:00.076Z,68.76
2022-08-01T20:49:28.386Z,68.52
2022-08-01T20:51:57.482Z,68.70
2022-08-01T20:54:26.654Z,69.22
2022-08-01T20:56:59.583Z,68.47
2022-08-01T20:59:55.160Z,68.84
2022-08-01T21:02:35.768Z,68.87
2022-08-01T21:05:06.108Z,69.50
2022-08-01T21:07:40.416Z,69.70
2022-08-01T21:10:09.437Z,69.14
2022-08-01T21:12:45.893Z,70.15
2022-08-01T21:15:16.367Z,70.25
2022-08-01T21:17:46.886Z,70.22
2022-08-01T21:20:15.997Z,69.48
2022-08-01T21:22:54.062Z,70.03
2022-08-01T21:25:25.754Z,70.28
2022-08-01T21:27:54.182Z,70.32
2022-08-01T21:30:25.154Z,70.04
2022-08-01T21:32:53.178Z,69.93
2022-08-01T21:35:23.694Z,70.05
2022-08-01T21:37:53.524Z,70.49
2022-08-01T21:40:22.074Z,70.66
2022-08-01T21:42:51.592Z,70.15
2022-08-01T21:45:21.834Z,70.51
2022-08-01T21:47:50.475Z,70.82
2022-08-01T21:50:18.485Z,71.76
2022-08-01T21:52:48.921Z,72.06
2022-08-01T21:55:35.054Z,72.30
2022-08-01T21:58:14.677Z,72.23
2022-08-01T22:00:44.939Z,72.18
2022-08-01T22:03:22.213Z,72.07
2022-08-01T22:05:51.636Z,72.04
2022-08-01T22:08:25.149Z,71.98
2022-08-01T22:10:59.240Z,72.52
2022-08-01T22:13:26.916Z,73.10
2022-08-01T22:15:55.528Z,73.83
2022-08-01T22:18:23.840Z,74.11
2022-08-01T22:20:52.532Z,74.79
2022-08-01T22:23:22.691Z,75.49
2022-08-01T22:25:55.667Z,75.95
2022-08-01T22:28:25.076Z,75.69
2022-08-01T22:30:54.493Z,76.26
2022-08-01T22:33:22.339Z,76.17
2022-08-01T22:35:52.765Z,76.78
2022-08-01T22:38:22.473Z,76.41
2022-08-01T22:40:51.577Z,76.27
2022-08-01T22:43:27.199Z,75.97
2022-08-01T22:46:01.903Z,76.86
2022-08-01T22:48:34.904Z,76.37
2022-08-01T22:51:07.490Z,76.01
2022-08-01T22:53:39.602Z,76.00
2022-08-01T22:56:10.885Z,76.09
2022-08-01T22:58:41.185Z,76.22
2022-08-01T23:01:11.889Z,75.71
2022-08-01T23:03:41.636Z,75.65
2022-08-01T23:06:12.706Z,75.82
2022-08-01T23:08:41.590Z,76.04
2022-08-01T23:11:09.460Z,76.46
2022-08-01T23:13:37.474Z,76.48
2022-08-01T23:16:07.083Z,76.38
2022-08-01T23:18:35.116Z,76.00
2022-08-01T23:21:03.741Z,76.12
2022-08-01T23:23:33.031Z,76.11
2022-08-01T23:26:01.578Z,76.14
2022-08-01T23:28:30.328Z,76.40
2022-08-01T23:30:59.099Z,76.81
2022-08-01T23:33:28.192Z,76.38
2022-08-01T23:35:55.896Z,76.26
2022-08-01T23:38:23.612Z,77.00
2022-08-01T23:40:51.288Z,77.40
2022-08-01T23:43:19.041Z,77.38
2022-08-01T23:46:03.652Z,77.54
2022-08-01T23:48:34.940Z,77.65
2022-08-01T23:51:03.164Z,77.84
2022-08-01T23:53:31.462Z,78.16
2022-08-01T23:56:02.706Z,77.97
2022-08-01T23:58:31.406Z,78.13
